Time;durP1;ratioP1;P1;durP2;ratioP2;P2;SDS_P1;SDS_P2;PMS_P1;PMS_P2;Temp;Humidity;BMP_temperature;BMP_pressure;BME280_temperature;BME280_humidity;BME280_pressure;Samples;Min_cycle;Max_cycle;Signal;HPM_P1;HPM_P2
2022/07/22 00:01:15;;;;;;;10.27;0.70;;;;;;;14.16;56.99;101879.50;4976576;28;20038;-68
2022/07/22 00:03:41;;;;;;;1.83;0.82;;;;;;;14.21;57.09;101880.22;4953957;28;20134;-68
2022/07/22 00:06:06;;;;;;;4.88;0.68;;;;;;;14.19;56.74;101891.69;4953408;28;20101;-67
2022/07/22 00:08:32;;;;;;;4.20;0.80;;;;;;;13.86;57.39;101894.72;4975238;28;20065;-67
2022/07/22 00:10:57;;;;;;;2.72;0.85;;;;;;;13.62;58.06;101889.44;4989121;28;20035;-67
2022/07/22 00:13:23;;;;;;;3.63;0.77;;;;;;;13.56;58.45;101891.41;4975109;28;20057;-66
2022/07/22 00:15:52;;;;;;;1.48;0.32;;;;;;;13.56;58.29;101888.78;4975451;28;20789;-67
2022/07/22 00:18:24;;;;;;;5.07;0.50;;;;;;;13.72;57.60;101890.81;4967438;28;20755;-65
2022/07/22 00:20:53;;;;;;;2.38;0.57;;;;;;;13.67;57.98;101891.91;4974846;28;20042;-66
2022/07/22 00:23:19;;;;;;;3.75;0.35;;;;;;;13.88;57.61;101891.09;4962887;28;20450;-65
2022/07/22 00:25:47;;;;;;;4.88;0.55;;;;;;;13.75;57.98;101891.63;4961704;28;20042;-66
2022/07/22 00:28:13;;;;;;;9.50;1.05;;;;;;;13.90;57.76;101894.53;4977429;28;20449;-66
2022/07/22 00:30:38;;;;;;;5.53;0.60;;;;;;;13.70;58.07;101904.94;4990680;28;20045;-67
2022/07/22 00:33:04;;;;;;;2.83;0.40;;;;;;;13.81;57.96;101905.41;4976785;28;20038;-72
2022/07/22 00:35:29;;;;;;;5.93;0.70;;;;;;;13.81;57.67;101902.78;4994643;28;20117;-72
2022/07/22 00:37:57;;;;;;;7.32;1.13;;;;;;;13.85;58.03;101911.38;4979867;28;20070;-73
2022/07/22 00:40:26;;;;;;;8.10;0.90;;;;;;;13.74;58.00;101909.16;4960450;28;20030;-68
2022/07/22 00:42:52;;;;;;;7.38;0.82;;;;;;;13.72;58.01;101908.38;4991937;28;20050;-68
2022/07/22 00:45:18;;;;;;;8.40;1.08;;;;;;;13.94;57.78;101904.03;4982368;28;20384;-68
2022/07/22 00:47:44;;;;;;;8.00;0.65;;;;;;;13.79;57.83;101906.38;4975244;28;20834;-69
2022/07/22 00:50:10;;;;;;;5.20;0.85;;;;;;;13.75;57.37;101899.50;4990474;28;20076;-68
2022/07/22 00:52:36;;;;;;;2.28;0.63;;;;;;;13.89;57.63;101899.84;4967698;28;20544;-69
2022/07/22 00:55:05;;;;;;;6.55;0.60;;;;;;;13.97;57.02;101899.56;4958188;28;20090;-69
2022/07/22 00:57:30;;;;;;;4.35;0.75;;;;;;;13.89;56.98;101908.56;4955030;28;20043;-69
2022/07/22 00:59:57;;;;;;;4.55;1.08;;;;;;;13.92;56.93;101905.84;4960229;28;20039;-73
2022/07/22 01:02:23;;;;;;;13.35;1.67;;;;;;;13.66;57.45;101916.47;4964836;28;20066;-67
2022/07/22 01:04:49;;;;;;;9.07;1.48;;;;;;;13.67;57.86;101907.66;4975130;28;20499;-68
2022/07/22 01:07:14;;;;;;;6.95;0.70;;;;;;;13.91;56.86;101909.38;4977424;28;20053;-69
2022/07/22 01:09:43;;;;;;;7.68;0.90;;;;;;;13.47;57.87;101911.84;4973247;28;20038;-69
2022/07/22 01:12:12;;;;;;;3.97;0.70;;;;;;;13.66;57.63;101908.59;4986447;28;20402;-69
2022/07/22 01:14:37;;;;;;;3.63;0.95;;;;;;;13.61;57.74;101908.75;4975391;28;20034;-70
2022/07/22 01:17:03;;;;;;;5.07;0.85;;;;;;;13.41;58.45;101906.81;4977916;28;20677;-69
2022/07/22 01:19:29;;;;;;;5.10;1.25;;;;;;;13.27;58.82;101909.06;4977184;28;20037;-69
2022/07/22 01:21:55;;;;;;;6.45;1.25;;;;;;;13.47;58.69;101903.97;4989941;28;20932;-70
2022/07/22 01:24:21;;;;;;;3.80;0.98;;;;;;;13.40;58.61;101902.47;4976206;28;20483;-71
2022/07/22 01:26:48;;;;;;;5.90;1.25;;;;;;;13.63;58.20;101900.81;4965086;28;20033;-70
2022/07/22 01:29:13;;;;;;;8.65;1.17;;;;;;;13.36;58.72;101894.75;4976568;28;20458;-70
2022/07/22 01:31:39;;;;;;;5.88;1.08;;;;;;;13.31;58.58;101903.63;4963178;28;20105;-70
2022/07/22 01:34:04;;;;;;;5.43;0.80;;;;;;;13.57;58.42;101901.03;4933757;28;20031;-70
2022/07/22 01:36:34;;;;;;;3.95;0.52;;;;;;;13.02;59.19;101904.66;4958036;28;20042;-70
2022/07/22 01:38:59;;;;;;;4.60;0.88;;;;;;;13.38;58.68;101909.53;4941818;28;20050;-70
2022/07/22 01:41:25;;;;;;;4.57;0.50;;;;;;;13.40;58.54;101910.34;4956009;28;20046;-70
2022/07/22 01:43:58;;;;;;;7.05;1.63;;;;;;;13.50;58.20;101910.88;4975132;28;20153;-70
2022/07/22 01:46:23;;;;;;;5.40;1.00;;;;;;;13.65;57.88;101909.47;4994653;28;20399;-70
2022/07/22 01:48:53;;;;;;;7.88;0.90;;;;;;;13.74;57.67;101903.88;4978281;28;20042;-72
2022/07/22 01:51:19;;;;;;;11.75;1.10;;;;;;;13.64;57.23;101908.63;4992804;28;20613;-70
2022/07/22 01:53:44;;;;;;;4.82;1.00;;;;;;;13.77;57.36;101905.56;4978458;28;20047;-71
2022/07/22 01:56:10;;;;;;;2.92;1.00;;;;;;;13.78;57.31;101910.75;4976839;28;20406;-70
2022/07/22 01:58:44;;;;;;;13.88;1.52;;;;;;;13.78;57.04;101899.38;4980173;28;20039;-71
2022/07/22 02:01:10;;;;;;;6.55;2.45;;;;;;;13.85;57.26;101903.50;4978866;28;20041;-70
2022/07/22 02:03:36;;;;;;;8.27;0.63;;;;;;;13.98;56.88;101906.53;4980674;28;20157;-67
2022/07/22 02:06:02;;;;;;;4.60;1.35;;;;;;;14.05;56.69;101903.59;4974830;28;20033;-68
2022/07/22 02:08:30;;;;;;;7.30;0.77;;;;;;;13.89;56.48;101908.56;4974996;28;20042;-68
2022/07/22 02:11:14;;;;;;;7.90;0.77;;;;;;;13.99;56.58;101911.72;4974063;28;20475;-68
2022/07/22 02:13:59;;;;;;;2.65;1.00;;;;;;;13.94;56.83;101911.03;4976605;28;20049;-68
2022/07/22 02:16:26;;;;;;;3.95;1.13;;;;;;;13.88;56.80;101917.38;4978483;28;20038;-69
2022/07/22 02:18:52;;;;;;;12.02;1.80;;;;;;;13.55;57.24;101910.72;4977996;28;20622;-68
2022/07/22 02:21:18;;;;;;;7.13;0.98;;;;;;;13.88;56.96;101900.78;4978098;28;20221;-68
2022/07/22 02:23:43;;;;;;;7.13;0.68;;;;;;;13.96;56.50;101906.56;4953018;28;20066;-67
2022/07/22 02:26:09;;;;;;;6.50;1.25;;;;;;;14.05;56.29;101905.38;4955165;28;20437;-68
2022/07/22 02:28:35;;;;;;;7.85;2.15;;;;;;;14.08;56.39;101897.38;4972216;28;20487;-68
2022/07/22 02:31:01;;;;;;;5.65;0.77;;;;;;;14.11;56.41;101899.88;4974581;28;20123;-68
2022/07/22 02:33:29;;;;;;;5.30;0.65;;;;;;;14.10;56.34;101901.66;4986776;28;20038;-67
2022/07/22 02:35:56;;;;;;;3.60;0.68;;;;;;;14.08;56.26;101905.28;4987654;28;20411;-68
2022/07/22 02:38:21;;;;;;;8.85;1.08;;;;;;;14.06;56.05;101905.31;4975906;28;20043;-67
2022/07/22 02:40:47;;;;;;;9.38;2.25;;;;;;;13.82;56.53;101904.47;4951916;28;20662;-68
2022/07/22 02:43:13;;;;;;;4.68;0.80;;;;;;;13.56;56.65;101910.63;4963322;28;20070;-68
2022/07/22 02:45:38;;;;;;;6.90;1.13;;;;;;;13.76;56.28;101912.56;4974843;28;20044;-68
2022/07/22 02:48:04;;;;;;;9.13;0.98;;;;;;;13.51;56.33;101913.44;4970330;28;20073;-68
2022/07/22 02:50:35;;;;;;;11.15;1.20;;;;;;;13.66;56.38;101916.47;4962084;28;20512;-68
2022/07/22 02:53:01;;;;;;;8.93;0.73;;;;;;;13.51;56.15;101918.69;4969642;28;20137;-68
2022/07/22 02:55:32;;;;;;;15.00;1.70;;;;;;;13.65;55.79;101920.00;4974824;28;20126;-67
2022/07/22 02:58:18;;;;;;;9.88;1.90;;;;;;;13.59;55.26;101920.25;4994191;28;20679;-68
2022/07/22 03:00:45;;;;;;;10.40;1.67;;;;;;;13.47;55.47;101917.09;4977952;28;20080;-68
2022/07/22 03:03:11;;;;;;;5.68;0.98;;;;;;;13.70;54.92;101923.31;4955865;28;20046;-68
2022/07/22 03:05:36;;;;;;;10.50;1.52;;;;;;;13.69;54.45;101919.81;4986210;28;20033;-69
2022/07/22 03:08:18;;;;;;;8.80;1.50;;;;;;;13.81;54.51;101923.78;4964866;28;20038;-68
2022/07/22 03:10:44;;;;;;;5.13;1.38;;;;;;;13.68;53.92;101926.00;4954088;28;20035;-68
2022/07/22 03:13:10;;;;;;;4.80;1.13;;;;;;;13.80;54.02;101924.69;4965314;28;20042;-68
2022/07/22 03:15:35;;;;;;;4.97;0.80;;;;;;;13.56;53.93;101925.56;4957051;28;20034;-69
2022/07/22 03:18:01;;;;;;;9.65;1.63;;;;;;;13.56;54.20;101928.19;4970126;28;20795;-68
2022/07/22 03:20:27;;;;;;;5.00;0.85;;;;;;;13.67;53.72;101919.06;4976342;28;20030;-68
2022/07/22 03:22:52;;;;;;;9.15;1.70;;;;;;;13.67;53.53;101928.69;4989255;28;20057;-66
2022/07/22 03:25:18;;;;;;;6.00;0.88;;;;;;;13.60;53.67;101933.28;4974413;28;20035;-66
2022/07/22 03:27:44;;;;;;;6.95;1.00;;;;;;;13.67;53.27;101928.69;4973650;28;20137;-71
2022/07/22 03:30:10;;;;;;;5.88;0.90;;;;;;;13.79;53.26;101924.75;4965498;28;20030;-74
2022/07/22 03:32:38;;;;;;;4.38;1.33;;;;;;;13.83;53.01;101928.97;4959073;28;20071;-72
2022/07/22 03:35:05;;;;;;;6.65;1.10;;;;;;;13.76;52.94;101933.59;4960624;28;20041;-73
2022/07/22 03:37:39;;;;;;;6.45;1.20;;;;;;;13.75;53.08;101929.25;4973137;28;20053;-74
2022/07/22 03:40:05;;;;;;;10.93;1.77;;;;;;;13.81;53.05;101936.94;4977112;28;20518;-74
2022/07/22 03:42:31;;;;;;;5.60;0.70;;;;;;;13.66;53.00;101926.97;4965170;28;20042;-73
2022/07/22 03:44:57;;;;;;;2.80;0.70;;;;;;;13.61;53.07;101924.53;4958644;28;20030;-72
2022/07/22 03:47:23;;;;;;;4.43;0.65;;;;;;;13.77;52.80;101927.44;4981525;28;20054;-73
2022/07/22 03:49:49;;;;;;;5.85;0.77;;;;;;;13.59;52.37;101925.50;4981627;28;20076;-73
2022/07/22 03:52:23;;;;;;;4.65;0.60;;;;;;;13.78;52.32;101921.25;4985714;28;20046;-72
2022/07/22 03:54:48;;;;;;;3.45;1.08;;;;;;;13.75;52.24;101910.88;4986195;28;20042;-72
2022/07/22 03:57:14;;;;;;;6.43;0.52;;;;;;;13.78;52.00;101913.38;4970038;28;20408;-77
2022/07/22 03:59:40;;;;;;;10.45;0.85;;;;;;;13.76;51.70;101922.22;4981649;28;20038;-74
2022/07/22 04:02:06;;;;;;;3.03;0.77;;;;;;;13.87;51.74;101928.78;4979080;28;20053;-75
2022/07/22 04:04:32;;;;;;;8.65;0.73;;;;;;;13.82;51.73;101912.34;4982110;28;20026;-73
2022/07/22 04:06:58;;;;;;;6.18;0.88;;;;;;;13.94;52.10;101918.91;4977444;28;20043;-73
2022/07/22 04:09:30;;;;;;;5.57;1.05;;;;;;;13.76;51.86;101923.06;4963457;28;20058;-73
2022/07/22 04:11:56;;;;;;;5.72;1.00;;;;;;;13.80;52.05;101918.59;4974446;28;20073;-74
2022/07/22 04:14:24;;;;;;;2.33;0.60;;;;;;;13.78;51.92;101928.28;4937762;28;20063;-74
2022/07/22 04:16:50;;;;;;;8.10;0.68;;;;;;;13.89;52.17;101928.75;4976699;28;20066;-73
2022/07/22 04:19:15;;;;;;;4.93;0.80;;;;;;;13.92;52.16;101926.88;4984356;28;20122;-73
2022/07/22 04:21:57;;;;;;;4.75;0.98;;;;;;;13.89;52.28;101928.75;4982928;28;20065;-74
2022/07/22 04:24:27;;;;;;;6.10;1.13;;;;;;;13.93;52.39;101923.31;4975904;28;20591;-65
2022/07/22 04:26:54;;;;;;;6.30;0.55;;;;;;;13.90;52.05;101931.31;4973485;28;20038;-65
2022/07/22 04:29:21;;;;;;;5.05;1.50;;;;;;;13.82;52.10;101937.78;4959719;28;20057;-65
2022/07/22 04:31:46;;;;;;;3.88;0.77;;;;;;;13.68;52.25;101938.28;4956729;28;20487;-65
2022/07/22 04:34:15;;;;;;;4.40;0.55;;;;;;;13.83;52.02;101940.38;4975395;28;21014;-65
2022/07/22 04:36:41;;;;;;;4.13;0.80;;;;;;;13.82;51.99;101933.38;4960464;28;20038;-71
2022/07/22 04:39:08;;;;;;;9.77;1.05;;;;;;;13.71;51.77;101943.41;4993732;28;20033;-72
2022/07/22 04:41:34;;;;;;;4.93;1.05;;;;;;;13.72;52.16;101943.38;4978550;28;20054;-72
2022/07/22 04:44:00;;;;;;;5.65;1.25;;;;;;;13.80;51.70;101944.84;4957450;28;20108;-72
2022/07/22 04:46:28;;;;;;;5.20;1.13;;;;;;;13.94;52.31;101932.94;4979884;28;20647;-71
2022/07/22 04:48:55;;;;;;;5.03;0.65;;;;;;;13.92;51.55;101934.75;4975098;28;20037;-72
2022/07/22 04:51:21;;;;;;;5.07;0.80;;;;;;;13.86;51.41;101940.22;4979744;28;20502;-72
2022/07/22 04:53:48;;;;;;;4.10;0.93;;;;;;;14.07;51.00;101927.19;4958266;28;20092;-72
2022/07/22 04:56:17;;;;;;;4.65;0.70;;;;;;;14.09;50.18;101935.88;4980185;28;20031;-75
2022/07/22 04:58:43;;;;;;;4.32;0.45;;;;;;;14.24;50.13;101937.94;4960378;28;20901;-74
2022/07/22 05:01:09;;;;;;;8.43;0.82;;;;;;;14.22;49.48;101937.13;4954717;28;20045;-68
2022/07/22 05:03:38;;;;;;;5.63;1.13;;;;;;;14.14;49.32;101942.69;4985785;28;20077;-68
2022/07/22 05:06:03;;;;;;;5.30;0.45;;;;;;;14.19;48.92;101932.00;4975212;28;20034;-69
2022/07/22 05:08:35;;;;;;;6.40;0.50;;;;;;;14.28;48.66;101930.78;4956635;28;20081;-67
2022/07/22 05:11:01;;;;;;;8.18;1.20;;;;;;;14.17;47.92;101939.09;4976970;28;20039;-69
2022/07/22 05:13:26;;;;;;;7.88;0.50;;;;;;;14.04;47.18;101943.09;4976887;28;20141;-69
2022/07/22 05:15:52;;;;;;;6.00;0.77;;;;;;;14.06;46.99;101943.91;4974823;28;20044;-71
2022/07/22 05:18:17;;;;;;;3.10;0.30;;;;;;;14.17;46.87;101939.09;4976971;28;20069;-71
2022/07/22 05:20:44;;;;;;;6.75;0.50;;;;;;;14.07;46.79;101935.09;4969442;28;20074;-72
2022/07/22 05:23:10;;;;;;;3.58;0.43;;;;;;;14.36;46.49;101933.97;4973034;28;20070;-72
2022/07/22 05:25:37;;;;;;;5.07;0.40;;;;;;;14.39;46.45;101927.72;4974975;28;20423;-71
2022/07/22 05:28:02;;;;;;;3.15;0.68;;;;;;;14.57;47.04;101934.94;4975058;28;20081;-71
2022/07/22 05:30:34;;;;;;;4.10;0.57;;;;;;;14.70;46.66;101930.00;4979496;28;20052;-71
2022/07/22 05:33:01;;;;;;;4.18;0.40;;;;;;;14.86;46.85;101933.75;4986906;28;20039;-71
2022/07/22 05:35:50;;;;;;;1.90;0.70;;;;;;;14.92;46.54;101935.25;4978422;28;20133;-72
2022/07/22 05:38:16;;;;;;;11.15;0.70;;;;;;;14.89;46.86;101938.00;4976692;28;20041;-71
2022/07/22 05:40:42;;;;;;;1.98;0.30;;;;;;;14.77;47.11;101944.66;4963103;28;20077;-71
2022/07/22 05:43:08;;;;;;;8.55;1.00;;;;;;;14.67;47.69;101940.66;4972578;28;20505;-71
2022/07/22 05:45:33;;;;;;;5.60;0.50;;;;;;;14.82;47.88;101939.19;4978519;28;20041;-71
2022/07/22 05:48:00;;;;;;;2.53;0.38;;;;;;;14.92;47.12;101937.88;4972913;28;20037;-71
2022/07/22 05:50:27;;;;;;;4.53;0.82;;;;;;;15.03;47.38;101932.16;4963214;28;20498;-70
2022/07/22 05:52:52;;;;;;;4.88;0.50;;;;;;;15.01;47.20;101931.38;4967660;28;20165;-71
2022/07/22 05:55:18;;;;;;;7.82;0.80;;;;;;;15.04;46.76;101940.00;4963350;28;20133;-71
2022/07/22 05:57:46;;;;;;;5.10;1.15;;;;;;;15.01;47.79;101937.50;4966376;28;20054;-71
2022/07/22 06:00:12;;;;;;;1.23;0.35;;;;;;;15.24;48.41;101939.19;4976488;28;20089;-71
2022/07/22 06:02:41;;;;;;;3.53;0.70;;;;;;;15.34;47.73;101934.38;4972729;28;20082;-72
2022/07/22 06:05:11;;;;;;;2.00;0.73;;;;;;;15.47;47.38;101932.94;4970039;28;20030;-71
2022/07/22 06:07:37;;;;;;;6.95;0.75;;;;;;;15.37;47.34;101934.22;4958777;28;20597;-71
2022/07/22 06:10:03;;;;;;;4.60;0.80;;;;;;;15.35;47.55;101944.00;4977231;28;20477;-71
2022/07/22 06:12:32;;;;;;;6.85;0.50;;;;;;;15.41;47.72;101943.72;4972028;28;20125;-70
2022/07/22 06:14:57;;;;;;;3.95;0.35;;;;;;;15.49;47.78;101953.94;4985304;28;20044;-69
2022/07/22 06:17:23;;;;;;;2.47;0.47;;;;;;;15.34;47.97;101950.19;4973539;28;20096;-71
2022/07/22 06:19:49;;;;;;;4.60;0.68;;;;;;;15.39;47.80;101953.47;4985885;28;20064;-70
2022/07/22 06:22:17;;;;;;;5.15;0.65;;;;;;;15.37;48.10;101955.31;4975280;28;20133;-69
2022/07/22 06:24:44;;;;;;;3.03;0.40;;;;;;;15.65;48.28;101954.13;4974730;28;20483;-70
2022/07/22 06:27:09;;;;;;;2.83;0.50;;;;;;;15.22;47.63;101956.00;4971316;28;20035;-70
2022/07/22 06:29:35;;;;;;;4.28;0.50;;;;;;;15.52;48.08;101962.53;4953695;28;20056;-70
2022/07/22 06:32:01;;;;;;;4.20;0.25;;;;;;;15.40;48.40;101960.47;4957516;28;20579;-70
2022/07/22 06:34:29;;;;;;;4.63;1.25;;;;;;;15.35;48.43;101957.19;4974021;28;20599;-70
2022/07/22 06:37:02;;;;;;;1.73;0.50;;;;;;;15.56;49.04;101966.75;4975282;28;20050;-70
2022/07/22 06:39:28;;;;;;;4.18;0.60;;;;;;;15.47;48.93;101964.53;4949925;28;20042;-69
2022/07/22 06:41:59;;;;;;;5.47;0.85;;;;;;;15.32;48.72;101965.19;4971795;28;20808;-70
2022/07/22 06:44:45;;;;;;;3.00;0.45;;;;;;;15.28;48.47;101971.50;4973956;28;20122;-70
2022/07/22 06:47:35;;;;;;;2.35;0.35;;;;;;;15.52;47.98;101980.16;4958716;28;20074;-70
2022/07/22 06:50:03;;;;;;;5.18;0.52;;;;;;;15.58;47.22;101978.09;4972377;28;20053;-70
2022/07/22 06:52:29;;;;;;;6.78;0.32;;;;;;;15.66;46.88;101982.16;4967829;28;20105;-70
2022/07/22 06:54:56;;;;;;;3.03;0.75;;;;;;;15.63;46.24;101979.69;4960733;28;20376;-69
2022/07/22 07:00:00;;;;;;;6.20;0.22;;;;;;;15.53;45.54;101976.59;4985791;28;20042;-67
2022/07/22 07:02:27;;;;;;;4.38;0.30;;;;;;;15.40;44.81;101978.91;4990398;28;20057;-67
2022/07/22 07:04:53;;;;;;;1.77;0.20;;;;;;;15.08;44.60;101974.94;4968740;28;20038;-67
2022/07/22 07:07:19;;;;;;;3.67;0.28;;;;;;;14.85;43.88;101971.50;4988847;28;20501;-69
2022/07/22 07:09:54;;;;;;;0.82;0.20;;;;;;;15.33;43.78;101975.69;4947804;28;20129;-67
2022/07/22 07:12:28;;;;;;;4.32;0.40;;;;;;;15.26;42.38;101968.09;4961781;28;20468;-67
2022/07/22 07:15:17;;;;;;;2.67;0.65;;;;;;;15.66;42.68;101971.63;4966842;28;20041;-69
2022/07/22 07:17:43;;;;;;;2.58;0.32;;;;;;;15.93;42.70;101969.53;4963639;28;20054;-67
2022/07/22 07:20:10;;;;;;;5.20;0.47;;;;;;;16.10;41.59;101971.44;4960892;28;20108;-67
2022/07/22 07:22:36;;;;;;;2.25;0.20;;;;;;;16.26;40.90;101961.88;4956461;28;20208;-68
2022/07/22 07:25:07;;;;;;;1.88;0.20;;;;;;;16.10;41.33;101964.38;4954235;28;20034;-67
2022/07/22 07:27:34;;;;;;;4.07;0.30;;;;;;;16.11;40.64;101967.91;4947676;28;20286;-67
2022/07/22 07:30:03;;;;;;;5.88;1.05;;;;;;;16.10;40.67;101971.44;4946804;28;20045;-67
2022/07/22 07:32:29;;;;;;;2.80;0.25;;;;;;;16.16;40.92;101972.00;4944317;28;20054;-67
2022/07/22 07:34:55;;;;;;;5.85;0.30;;;;;;;16.38;40.67;101973.66;4944020;28;20042;-66
2022/07/22 07:37:21;;;;;;;3.55;0.55;;;;;;;16.56;40.73;101974.56;4942320;28;20404;-67
2022/07/22 07:39:46;;;;;;;2.58;0.22;;;;;;;16.67;40.81;101972.25;4930988;28;20043;-67
2022/07/22 07:42:12;;;;;;;2.22;0.85;;;;;;;16.88;39.63;101974.81;4945585;28;20500;-66
2022/07/22 07:44:39;;;;;;;5.50;0.80;;;;;;;16.77;39.93;101973.53;4944785;28;20699;-66
2022/07/22 07:47:04;;;;;;;6.38;0.50;;;;;;;16.19;40.46;101968.38;4929263;28;20109;-67
2022/07/22 07:49:31;;;;;;;3.20;0.20;;;;;;;16.76;40.01;101973.63;4942188;28;20457;-67
2022/07/22 07:51:57;;;;;;;5.35;0.40;;;;;;;16.31;40.44;101981.00;4943051;28;21437;-66
2022/07/22 07:54:22;;;;;;;4.53;0.40;;;;;;;16.15;40.33;101977.34;4932508;28;20027;-67
2022/07/22 07:56:48;;;;;;;5.18;1.00;;;;;;;16.23;40.17;101983.13;4926174;28;20152;-66
2022/07/22 07:59:14;;;;;;;4.68;0.28;;;;;;;16.15;39.65;101978.22;4931888;28;20633;-67
2022/07/22 08:01:40;;;;;;;6.82;0.38;;;;;;;16.17;40.58;101975.50;4944227;28;20027;-69
2022/07/22 08:04:06;;;;;;;4.88;0.20;;;;;;;16.10;39.99;101982.84;4927959;28;20491;-66
2022/07/22 08:06:31;;;;;;;2.45;0.20;;;;;;;16.63;39.04;101978.63;4933660;28;20251;-67
2022/07/22 08:08:57;;;;;;;1.98;0.17;;;;;;;16.80;38.91;101978.69;4945626;28;20039;-68
2022/07/22 08:11:31;;;;;;;2.17;0.65;;;;;;;16.45;38.78;101987.41;4933677;28;20092;-67
2022/07/22 08:14:12;;;;;;;3.77;0.30;;;;;;;16.53;39.26;101982.59;4952754;28;20047;-67
2022/07/22 08:17:05;;;;;;;3.20;1.13;;;;;;;17.00;38.08;101984.75;4944902;28;20312;-67
2022/07/22 08:19:31;;;;;;;7.18;0.50;;;;;;;17.12;37.22;101986.78;4958880;28;20413;-67
2022/07/22 08:21:56;;;;;;;2.40;0.20;;;;;;;17.04;38.50;101981.03;4943694;28;20125;-68
2022/07/22 08:24:28;;;;;;;4.20;0.20;;;;;;;16.98;38.21;101976.94;4964578;28;20042;-67
2022/07/22 08:26:54;;;;;;;3.00;0.57;;;;;;;17.34;37.54;101980.44;4963232;28;20444;-67
2022/07/22 08:29:20;;;;;;;2.95;0.75;;;;;;;17.32;37.48;101982.28;4948214;28;20058;-68
2022/07/22 08:31:46;;;;;;;5.07;0.47;;;;;;;16.96;38.08;101991.97;4963735;28;20126;-67
2022/07/22 08:34:14;;;;;;;4.57;0.20;;;;;;;17.04;38.87;101981.03;4964407;28;20535;-67
2022/07/22 08:36:39;;;;;;;5.47;0.43;;;;;;;16.71;39.32;102000.22;4949023;28;20078;-68
2022/07/22 08:39:05;;;;;;;3.88;0.40;;;;;;;16.36;39.52;101988.69;4947308;28;20038;-68
2022/07/22 08:41:35;;;;;;;3.83;0.50;;;;;;;16.82;38.55;101986.50;4962461;28;20031;-68
2022/07/22 08:44:02;;;;;;;1.15;0.30;;;;;;;16.60;39.26;101992.81;4961709;28;20117;-69
2022/07/22 08:46:28;;;;;;;4.05;0.30;;;;;;;16.85;39.77;102002.22;4948678;28;20656;-67
2022/07/22 08:49:32;;;;;;;4.47;0.40;;;;;;;17.05;39.48;102003.03;4949336;28;20050;-67
2022/07/22 08:52:17;;;;;;;4.80;0.17;;;;;;;16.77;39.37;101999.94;4933208;28;20043;-68
2022/07/22 08:54:47;;;;;;;5.55;0.38;;;;;;;17.03;38.45;101993.38;4958235;28;20101;-68
2022/07/22 08:57:14;;;;;;;3.53;0.30;;;;;;;17.05;38.50;101997.75;4933956;28;20164;-68
2022/07/22 08:59:54;;;;;;;2.78;0.50;;;;;;;16.71;39.05;101994.94;4967686;28;20027;-68
2022/07/22 09:02:21;;;;;;;0.90;0.10;;;;;;;17.41;38.62;101995.03;4959403;28;20035;-68
2022/07/22 09:04:57;;;;;;;6.90;0.52;;;;;;;17.26;38.05;101990.53;4946265;28;20504;-68
2022/07/22 09:07:39;;;;;;;4.15;0.10;;;;;;;17.24;38.43;101998.50;4954187;28;20042;-68
2022/07/22 09:10:13;;;;;;;5.22;0.17;;;;;;;16.90;38.32;102004.63;4967792;28;20042;-68
2022/07/22 09:13:01;;;;;;;3.83;0.25;;;;;;;16.86;38.41;102008.34;4966503;28;20091;-69
2022/07/22 09:15:54;;;;;;;2.22;0.10;;;;;;;16.58;38.62;102015.78;4967533;28;20074;-68
2022/07/22 09:18:50;;;;;;;3.33;0.22;;;;;;;16.79;39.75;102011.28;4970515;28;20701;-67
2022/07/22 09:21:51;;;;;;;2.83;0.20;;;;;;;17.09;39.04;102002.81;4939462;28;20144;-68
2022/07/22 09:24:45;;;;;;;2.30;0.43;;;;;;;17.13;38.09;102003.50;4952831;28;20123;-68
2022/07/22 09:27:25;;;;;;;;;;;;;;;16.81;38.68;102006.78;4956150;28;20046;-68
2022/07/22 09:30:26;;;;;;;0.57;0.25;;;;;;;17.63;37.97;102005.38;4944714;28;19922;-68
2022/07/22 09:33:07;;;;;;;2.08;0.25;;;;;;;16.81;38.86;102012.06;4945708;28;20051;-68
2022/07/22 09:35:41;;;;;;;3.22;0.40;;;;;;;16.58;39.23;102010.50;4951952;28;20547;-68
2022/07/22 09:38:12;;;;;;;5.45;0.15;;;;;;;16.65;38.60;102016.34;4962160;28;20051;-68
2022/07/22 09:40:40;;;;;;;5.25;0.25;;;;;;;16.65;39.39;102011.06;4965101;28;20864;-68
2022/07/22 09:43:16;;;;;;;1.83;0.20;;;;;;;17.47;38.32;102010.56;4946042;28;20038;-68
2022/07/22 09:45:51;;;;;;;0.70;0.20;;;;;;;17.69;36.85;102009.47;4948314;28;20031;-70
2022/07/22 09:48:20;;;;;;;2.55;0.22;;;;;;;17.83;38.04;102013.13;4947728;28;20500;-68
2022/07/22 09:50:56;;;;;;;1.42;0.10;;;;;;;18.16;37.05;102006.09;4963127;28;20092;-68
2022/07/22 09:53:33;;;;;;;3.30;0.15;;;;;;;18.12;36.50;102012.47;4942825;28;20042;-68
2022/07/22 09:56:05;;;;;;;2.58;0.30;;;;;;;17.63;37.36;102008.88;4947542;28;20404;-68
2022/07/22 09:58:32;;;;;;;2.58;0.35;;;;;;;18.24;36.64;102003.91;4946361;28;20803;-69
2022/07/22 10:01:03;;;;;;;3.33;0.10;;;;;;;17.85;37.02;102005.09;4947850;28;20730;-69
2022/07/22 10:03:31;;;;;;;3.15;0.10;;;;;;;17.77;36.72;102009.94;4946844;28;20047;-68
2022/07/22 10:05:59;;;;;;;4.03;0.30;;;;;;;17.52;37.96;102008.56;4961960;28;20476;-68
2022/07/22 10:08:27;;;;;;;2.80;0.40;;;;;;;17.41;38.59;102021.47;4946881;28;20058;-68
2022/07/22 10:10:57;;;;;;;9.13;1.08;;;;;;;17.61;38.56;102020.47;4947084;28;20524;-68
2022/07/22 10:13:23;;;;;;;7.30;0.20;;;;;;;17.57;37.57;102022.41;4927312;28;20070;-68
2022/07/22 10:15:49;;;;;;;8.30;0.32;;;;;;;17.01;39.46;102018.16;4960054;28;20120;-68
2022/07/22 10:18:17;;;;;;;6.85;0.38;;;;;;;17.49;38.63;102021.94;4959256;28;20057;-68
2022/07/22 10:20:45;;;;;;;5.47;0.20;;;;;;;17.34;38.05;102023.56;4961843;28;20039;-68
2022/07/22 10:23:12;;;;;;;4.55;0.30;;;;;;;17.64;38.29;102026.44;4945884;28;20167;-68
2022/07/22 10:25:52;;;;;;;4.00;0.20;;;;;;;17.32;38.08;102021.94;4944648;28;20094;-68
2022/07/22 10:28:32;;;;;;;5.35;0.20;;;;;;;17.79;37.97;102026.59;4947931;28;20043;-70
2022/07/22 10:31:22;;;;;;;3.05;0.20;;;;;;;17.94;38.01;102025.78;4944876;28;20081;-68
2022/07/22 10:33:53;;;;;;;6.43;0.30;;;;;;;17.85;37.36;102026.25;4957641;28;20527;-68
2022/07/22 10:36:33;;;;;;;2.22;0.28;;;;;;;17.57;38.53;102022.41;4965013;28;20537;-69
2022/07/22 10:39:11;;;;;;;1.67;0.10;;;;;;;17.92;38.83;102027.66;4940754;28;20452;-68
2022/07/22 10:41:38;;;;;;;4.05;0.20;;;;;;;18.16;38.29;102027.25;4945680;28;20027;-67
2022/07/22 10:44:05;;;;;;;5.80;0.20;;;;;;;18.30;38.30;102024.75;4940244;28;20080;-68
2022/07/22 10:46:50;;;;;;;2.53;0.10;;;;;;;17.57;38.03;102019.75;4941488;28;20042;-68
2022/07/22 10:49:18;;;;;;;2.45;0.40;;;;;;;17.85;38.09;102020.97;4942809;28;20046;-69
2022/07/22 10:52:16;;;;;;;2.75;0.47;;;;;;;17.99;37.76;102017.59;4942685;28;20066;-69
2022/07/22 10:55:20;;;;;;;2.20;0.20;;;;;;;17.15;38.93;102022.75;4943308;28;20034;-69
2022/07/22 10:57:46;;;;;;;8.43;0.10;;;;;;;17.15;39.88;102022.75;4943352;28;20082;-68
2022/07/22 11:00:11;;;;;;;5.07;0.20;;;;;;;16.76;40.08;102023.78;4939659;28;20762;-71
2022/07/22 11:02:38;;;;;;;1.75;0.50;;;;;;;16.70;40.41;102018.75;4943083;28;20047;-67
2022/07/22 11:05:05;;;;;;;2.08;0.28;;;;;;;16.60;40.80;102019.22;4942982;28;20101;-68
2022/07/22 11:07:32;;;;;;;3.30;0.20;;;;;;;16.77;39.96;102021.06;4943565;28;20138;-69
2022/07/22 11:10:15;;;;;;;2.83;0.22;;;;;;;17.32;39.86;102019.28;4943180;28;20173;-69
2022/07/22 11:12:41;;;;;;;8.98;0.47;;;;;;;16.89;40.01;102018.75;4940534;28;20078;-68
2022/07/22 11:15:08;;;;;;;3.35;0.20;;;;;;;17.30;40.02;102019.34;4943086;28;20169;-67
2022/07/22 11:17:34;;;;;;;2.88;0.30;;;;;;;17.77;38.86;102012.59;4943685;28;20130;-68
2022/07/22 11:20:05;;;;;;;5.72;0.10;;;;;;;17.90;39.12;102008.34;4943237;28;20023;-66
2022/07/22 11:22:31;;;;;;;4.38;0.70;;;;;;;17.99;38.47;102012.31;4943353;28;20048;-67
2022/07/22 11:24:59;;;;;;;2.83;0.63;;;;;;;17.67;38.44;102017.50;4943387;28;20511;-68
2022/07/22 11:27:25;;;;;;;2.50;0.30;;;;;;;17.64;38.27;102018.50;4947016;28;20170;-69
2022/07/22 11:29:53;;;;;;;2.35;0.50;;;;;;;17.84;38.40;102016.59;4942172;28;20419;-70
2022/07/22 11:32:20;;;;;;;5.15;0.43;;;;;;;17.19;38.37;102014.59;4946123;28;20046;-68
2022/07/22 11:34:47;;;;;;;4.45;0.17;;;;;;;17.62;38.35;102015.06;4947818;28;20042;-68
2022/07/22 11:37:18;;;;;;;4.80;0.30;;;;;;;17.71;38.39;101999.69;4946362;28;20039;-68